Time;durP1;ratioP1;P1;durP2;ratioP2;P2;SDS_P1;SDS_P2;PMS_P1;PMS_P2;Temp;Humidity;BMP_temperature;BMP_pressure;BME280_temperature;BME280_humidity;BME280_pressure;Samples;Min_cycle;Max_cycle;Signal;HPM_P1;HPM_P2
2022/08/26 00:02:00;;;;;;;24.70;16.65;;;;;;;23.22;100.00;96110.31;5026517;28;20108;-46
2022/08/26 00:04:28;;;;;;;25.80;17.15;;;;;;;23.28;100.00;96105.88;5025876;28;20073;-46
2022/08/26 00:06:58;;;;;;;24.95;15.35;;;;;;;23.30;100.00;96101.09;5022266;28;20092;-47
2022/08/26 00:09:26;;;;;;;24.60;13.70;;;;;;;23.30;100.00;96104.59;5020196;28;20476;-46
2022/08/26 00:11:55;;;;;;;19.35;13.15;;;;;;;23.31;100.00;96106.22;5024828;28;20088;-50
2022/08/26 00:14:25;;;;;;;19.10;12.27;;;;;;;23.28;100.00;96097.81;5024306;28;20129;-48
2022/08/26 00:16:59;;;;;;;14.00;11.00;;;;;;;23.15;100.00;96098.84;5023703;28;20081;-45
2022/08/26 00:19:27;;;;;;;17.55;10.85;;;;;;;23.05;100.00;96098.59;5026059;28;20154;-46
2022/08/26 00:21:55;;;;;;;17.48;10.13;;;;;;;22.77;100.00;96096.53;5018804;28;20088;-48
2022/08/26 00:24:25;;;;;;;17.17;11.45;;;;;;;22.70;100.00;96108.19;5023857;28;20080;-50
2022/08/26 00:26:53;;;;;;;16.63;11.50;;;;;;;22.49;100.00;96106.84;5021594;28;20093;-48
2022/08/26 00:29:22;;;;;;;17.45;10.75;;;;;;;22.67;100.00;96110.53;5014844;28;20085;-54
2022/08/26 00:31:50;;;;;;;15.35;10.30;;;;;;;22.70;100.00;96108.19;5017159;28;20575;-51
2022/08/26 00:34:18;;;;;;;15.52;10.85;;;;;;;22.63;100.00;96103.97;5023523;28;20092;-49
2022/08/26 00:36:47;;;;;;;15.32;11.02;;;;;;;22.62;100.00;96103.16;5018065;28;20452;-50
2022/08/26 00:39:19;;;;;;;16.00;11.38;;;;;;;22.60;100.00;96113.31;5022172;28;20168;-50
2022/08/26 00:41:49;;;;;;;16.58;11.55;;;;;;;22.77;100.00;96105.41;5026593;28;20084;-49
2022/08/26 00:44:18;;;;;;;16.65;10.15;;;;;;;22.71;100.00;96103.63;5022604;28;20084;-48
2022/08/26 00:46:50;;;;;;;12.88;10.13;;;;;;;22.25;100.00;96105.94;5022600;28;20073;-50
2022/08/26 00:49:24;;;;;;;14.75;9.00;;;;;;;22.20;100.00;96105.00;5021593;28;20085;-47
2022/08/26 00:51:54;;;;;;;12.43;7.90;;;;;;;22.35;100.00;96104.56;5017029;28;20085;-46
2022/08/26 00:54:25;;;;;;;12.45;8.40;;;;;;;22.33;100.00;96099.41;5020810;28;20077;-49
2022/08/26 00:56:58;;;;;;;14.10;9.00;;;;;;;22.49;100.00;96106.03;5016487;28;20073;-52
2022/08/26 00:59:28;;;;;;;12.07;8.48;;;;;;;22.55;100.00;96112.38;5024176;28;20085;-47
2022/08/26 01:02:00;;;;;;;12.23;9.27;;;;;;;22.39;100.00;96111.13;5023719;28;20065;-49
2022/08/26 01:04:31;;;;;;;12.70;8.75;;;;;;;22.43;100.00;96102.38;5021608;28;20080;-46
2022/08/26 01:07:00;;;;;;;13.32;8.75;;;;;;;22.17;100.00;96110.81;5024382;28;20559;-50
2022/08/26 01:09:28;;;;;;;11.27;9.02;;;;;;;22.24;100.00;96106.97;5019033;28;20099;-51
2022/08/26 01:12:01;;;;;;;16.60;10.90;;;;;;;22.54;100.00;96111.56;5028251;28;20080;-49
2022/08/26 01:14:32;;;;;;;16.65;10.45;;;;;;;22.63;100.00;96117.41;5029114;28;20076;-48
2022/08/26 01:17:02;;;;;;;15.10;10.50;;;;;;;22.45;100.00;96105.66;5023064;28;20103;-51
2022/08/26 01:19:37;;;;;;;12.20;9.10;;;;;;;22.36;100.00;96100.84;5026371;28;20080;-48
2022/08/26 01:22:10;;;;;;;14.82;10.52;;;;;;;22.13;100.00;96104.22;5025017;28;20310;-46
2022/08/26 01:24:42;;;;;;;16.77;9.25;;;;;;;22.50;100.00;96103.13;5024527;28;20088;-50
2022/08/26 01:27:13;;;;;;;15.60;11.38;;;;;;;22.32;100.00;96103.16;5030002;28;20077;-51
2022/08/26 01:29:44;;;;;;;17.05;10.68;;;;;;;22.53;100.00;96104.50;5022921;28;20077;-47
2022/08/26 01:32:16;;;;;;;12.95;7.25;;;;;;;22.47;100.00;96092.84;5028563;28;20084;-51
2022/08/26 01:34:47;;;;;;;16.70;8.00;;;;;;;21.91;100.00;96103.84;5028312;28;20125;-49
2022/08/26 01:37:16;;;;;;;16.30;9.30;;;;;;;21.94;100.00;96106.09;5027559;28;20542;-51
2022/08/26 01:39:49;;;;;;;15.90;9.20;;;;;;;21.97;100.00;96111.81;5021873;28;20107;-52
2022/08/26 01:42:21;;;;;;;17.60;9.68;;;;;;;22.19;100.00;96106.00;5025783;28;20463;-47
2022/08/26 01:44:52;;;;;;;13.88;8.23;;;;;;;21.70;100.00;96115.84;5026743;28;20081;-52
2022/08/26 01:47:22;;;;;;;11.95;8.77;;;;;;;22.30;100.00;96112.47;5026436;28;20081;-46
2022/08/26 01:49:51;;;;;;;13.55;9.10;;;;;;;22.20;100.00;96107.66;5026566;28;20080;-48
2022/08/26 01:52:23;;;;;;;13.55;10.55;;;;;;;21.81;100.00;96105.19;5028708;28;20495;-46
2022/08/26 01:54:57;;;;;;;15.73;12.60;;;;;;;21.98;100.00;96113.47;5028650;28;20105;-55
2022/08/26 01:57:26;;;;;;;23.13;14.35;;;;;;;22.20;100.00;96111.16;5028612;28;20084;-46
2022/08/26 01:59:55;;;;;;;22.55;13.98;;;;;;;22.14;100.00;96119.28;5025588;28;20492;-46
2022/08/26 02:02:24;;;;;;;22.35;14.68;;;;;;;22.21;100.00;96120.84;5024419;28;20081;-47
2022/08/26 02:04:55;;;;;;;26.00;16.42;;;;;;;22.28;100.00;96126.16;5027622;28;20100;-47
2022/08/26 02:07:24;;;;;;;24.52;16.45;;;;;;;22.31;100.00;96119.50;5023695;28;20473;-49
2022/08/26 02:09:55;;;;;;;26.17;15.68;;;;;;;22.32;100.00;96121.97;5021409;28;20100;-47
2022/08/26 02:12:25;;;;;;;25.20;14.07;;;;;;;22.14;100.00;96112.03;5019741;28;20529;-52
2022/08/26 02:14:54;;;;;;;;;;;;;;;21.85;100.00;96127.06;5020575;28;20128;-49
2022/08/26 02:17:29;;;;;;;22.02;14.73;;;;;;;21.68;100.00;96126.84;5027927;28;19975;-47
2022/08/26 02:19:58;;;;;;;23.80;15.73;;;;;;;21.78;100.00;96112.88;5024435;28;20095;-49
2022/08/26 02:22:26;;;;;;;24.02;15.32;;;;;;;21.89;100.00;96120.19;5023459;28;20077;-46
2022/08/26 02:24:58;;;;;;;27.98;16.95;;;;;;;21.96;100.00;96120.94;5024718;28;21066;-50
2022/08/26 02:27:29;;;;;;;24.08;17.48;;;;;;;22.02;100.00;96119.19;5028693;28;20076;-49
2022/08/26 02:30:04;;;;;;;24.30;14.98;;;;;;;21.43;100.00;96118.81;5029710;28;20088;-48
2022/08/26 02:32:33;;;;;;;21.92;15.30;;;;;;;21.63;100.00;96115.13;5028953;28;20080;-47
2022/08/26 02:35:02;;;;;;;25.10;15.38;;;;;;;21.69;100.00;96108.84;5030473;28;20467;-47
2022/08/26 02:37:32;;;;;;;28.60;14.38;;;;;;;21.80;100.00;96111.59;5030616;28;20089;-51
2022/08/26 02:40:02;;;;;;;;;;;;;;;21.79;100.00;96111.84;5030706;28;20082;-46
2022/08/26 02:42:31;;;;;;;27.67;14.85;;;;;;;21.64;100.00;96116.75;5025988;28;20594;-47
2022/08/26 02:44:59;;;;;;;25.48;15.65;;;;;;;21.79;100.00;96109.16;5030661;28;20127;-54
2022/08/26 02:47:28;;;;;;;24.30;15.43;;;;;;;21.77;100.00;96109.38;5030910;28;20465;-51
2022/08/26 02:49:59;;;;;;;23.73;16.13;;;;;;;21.87;100.00;96103.47;5030158;28;20092;-50
2022/08/26 02:52:28;;;;;;;30.05;14.93;;;;;;;22.00;100.00;96102.50;5028661;28;20081;-50
2022/08/26 02:54:56;;;;;;;26.13;15.60;;;;;;;22.04;100.00;96098.31;5029418;28;20096;-48
2022/08/26 02:57:26;;;;;;;28.23;17.55;;;;;;;22.16;100.00;96098.41;5026311;28;20092;-52
2022/08/26 02:59:54;;;;;;;29.80;17.98;;;;;;;22.19;100.00;96100.63;5028595;28;20073;-52
2022/08/26 03:02:23;;;;;;;32.55;19.77;;;;;;;22.09;100.00;96100.31;5028133;28;20085;-48
2022/08/26 03:04:51;;;;;;;25.67;15.75;;;;;;;22.00;100.00;96094.47;5025906;28;20088;-49
2022/08/26 03:07:29;;;;;;;33.35;16.85;;;;;;;22.20;100.00;96099.63;5029494;28;20460;-51
2022/08/26 03:09:58;;;;;;;31.40;14.20;;;;;;;22.10;100.00;96088.56;5025785;28;20322;-46
2022/08/26 03:12:27;;;;;;;30.90;13.75;;;;;;;21.70;100.00;96091.69;5027070;28;20084;-46
2022/08/26 03:14:57;;;;;;;30.02;16.15;;;;;;;21.40;100.00;96092.41;5022994;28;20088;-48
2022/08/26 03:17:25;;;;;;;31.88;16.88;;;;;;;21.54;100.00;96093.09;5026894;28;20077;-49
2022/08/26 03:19:54;;;;;;;28.83;15.15;;;;;;;21.58;100.00;96091.63;5028787;28;20124;-50
2022/08/26 03:22:25;;;;;;;31.60;15.82;;;;;;;21.66;100.00;96087.84;5028482;28;20076;-51
2022/08/26 03:24:54;;;;;;;25.95;15.32;;;;;;;21.78;100.00;96083.34;5027080;28;20076;-48
2022/08/26 03:27:22;;;;;;;23.10;14.10;;;;;;;21.67;100.00;96081.41;5027636;28;20554;-47
2022/08/26 03:32:39;;;;;;;38.33;12.57;;;;;;;21.79;100.00;96074.28;5020105;28;20636;-45
2022/08/26 03:35:09;;;;;;;37.50;14.13;;;;;;;21.22;100.00;96078.97;5022616;28;20073;-49
2022/08/26 03:37:38;;;;;;;30.10;15.50;;;;;;;20.88;100.00;96082.97;5029269;28;20452;-50
2022/08/26 03:40:09;;;;;;;29.58;13.60;;;;;;;21.23;100.00;96083.28;5026928;28;20088;-50
2022/08/26 03:42:38;;;;;;;27.58;13.07;;;;;;;21.44;100.00;96076.69;5028778;28;20547;-48
2022/08/26 03:45:10;;;;;;;28.10;14.50;;;;;;;21.43;100.00;96075.88;5028847;28;20640;-46
2022/08/26 03:47:38;;;;;;;36.40;14.48;;;;;;;21.37;100.00;96073.25;5029653;28;20088;-47
2022/08/26 03:50:09;;;;;;;26.77;13.52;;;;;;;21.04;100.00;96079.75;5031879;28;20081;-50
2022/08/26 03:52:38;;;;;;;26.83;14.05;;;;;;;20.81;100.00;96085.69;5015915;28;20092;-48
2022/08/26 03:55:11;;;;;;;26.73;14.80;;;;;;;21.28;100.00;96078.91;5023505;28;20099;-47
2022/08/26 03:57:39;;;;;;;22.40;14.57;;;;;;;21.27;100.00;96087.19;5024821;28;20068;-49
2022/08/26 04:00:14;;;;;;;22.05;15.32;;;;;;;21.00;100.00;96084.72;5023627;28;20095;-54
2022/08/26 04:02:48;;;;;;;23.30;16.00;;;;;;;20.71;100.00;96088.84;5021895;28;20076;-53
2022/08/26 04:05:18;;;;;;;27.33;16.70;;;;;;;;;;5023236;28;20077;-47
2022/08/26 04:07:46;;;;;;;22.70;15.52;;;;;;;21.10;100.00;96090.41;5023937;28;20037;-49
2022/08/26 04:10:17;;;;;;;22.73;14.55;;;;;;;21.26;100.00;96080.16;5021089;28;20089;-47
2022/08/26 04:12:47;;;;;;;27.98;15.73;;;;;;;21.04;100.00;96085.09;5022116;28;20081;-49
2022/08/26 04:15:17;;;;;;;28.35;12.90;;;;;;;21.19;100.00;96085.56;5025675;28;20084;-49
2022/08/26 04:17:46;;;;;;;24.40;14.57;;;;;;;21.10;100.00;96093.09;5026747;28;20148;-48
2022/08/26 04:20:16;;;;;;;25.88;14.43;;;;;;;21.29;100.00;96098.47;5019479;28;20064;-47
2022/08/26 04:22:45;;;;;;;98.15;87.53;;;;;;;21.21;100.00;96093.41;5025307;28;20081;-51
2022/08/26 04:25:14;;;;;;;35.53;28.73;;;;;;;21.22;100.00;96089.69;5028371;28;20093;-49
2022/08/26 04:27:43;;;;;;;20.90;13.73;;;;;;;21.02;100.00;96085.31;5029320;28;20073;-52
2022/08/26 04:30:12;;;;;;;20.17;14.45;;;;;;;21.27;100.00;96090.66;5029118;28;20088;-52
2022/08/26 04:32:42;;;;;;;25.40;14.87;;;;;;;21.46;100.00;96088.84;5028726;28;20469;-48
2022/08/26 04:35:11;;;;;;;16.52;13.32;;;;;;;21.46;100.00;96083.50;5023355;28;20085;-54
2022/08/26 04:37:39;;;;;;;23.88;13.80;;;;;;;21.39;100.00;96084.59;5029376;28;20083;-49
2022/08/26 04:40:11;;;;;;;23.67;13.50;;;;;;;21.56;100.00;96086.47;5028974;28;20566;-52
2022/08/26 04:42:39;;;;;;;17.70;12.15;;;;;;;21.37;100.00;96089.34;5028516;28;20546;-47
2022/08/26 04:45:08;;;;;;;21.40;13.38;;;;;;;21.23;100.00;96088.63;5027947;28;20085;-46
2022/08/26 04:47:37;;;;;;;22.10;14.57;;;;;;;21.36;100.00;96088.53;5029029;28;20081;-48
2022/08/26 04:50:08;;;;;;;25.65;15.15;;;;;;;21.74;100.00;96085.66;5023607;28;20666;-49
2022/08/26 04:52:38;;;;;;;24.50;15.07;;;;;;;21.99;100.00;96084.78;5028788;28;20092;-47
2022/08/26 04:55:07;;;;;;;18.55;14.07;;;;;;;22.10;100.00;96088.56;5027501;28;20108;-52
2022/08/26 04:57:35;;;;;;;20.55;12.70;;;;;;;22.25;100.00;96091.69;5028669;28;20566;-49
2022/08/26 05:00:06;;;;;;;21.63;13.23;;;;;;;22.45;100.00;96096.78;5028618;28;20481;-47
2022/08/26 05:02:35;;;;;;;24.15;13.13;;;;;;;22.81;100.00;96090.44;5027163;28;20088;-46
2022/08/26 05:05:05;;;;;;;16.58;12.38;;;;;;;23.45;100.00;96085.28;5028488;28;20077;-55
2022/08/26 05:07:36;;;;;;;16.65;11.57;;;;;;;23.81;100.00;96086.91;5029081;28;20531;-47
2022/08/26 05:10:05;;;;;;;15.27;10.95;;;;;;;23.84;100.00;96085.59;5026947;28;20092;-47
2022/08/26 05:12:36;;;;;;;13.60;11.98;;;;;;;24.06;100.00;96086.63;5028393;28;20095;-52
2022/08/26 05:15:06;;;;;;;18.75;12.43;;;;;;;24.45;100.00;96083.34;5029153;28;20104;-50
2022/08/26 05:17:34;;;;;;;17.55;11.82;;;;;;;24.66;100.00;96088.03;5024624;28;20073;-50
2022/08/26 05:20:04;;;;;;;16.80;12.27;;;;;;;25.22;100.00;96082.75;5028324;28;20074;-51
2022/08/26 05:22:34;;;;;;;17.70;11.95;;;;;;;25.30;100.00;96088.56;5023502;28;20084;-52
2022/08/26 05:25:03;;;;;;;14.07;11.02;;;;;;;25.69;100.00;96087.78;5022490;28;20440;-54
2022/08/26 05:27:31;;;;;;;14.63;11.02;;;;;;;25.27;100.00;96094.47;5028131;28;20507;-49
2022/08/26 05:30:00;;;;;;;15.98;11.90;;;;;;;25.13;100.00;96095.06;5027966;28;20081;-50
2022/08/26 05:32:29;;;;;;;15.68;12.15;;;;;;;25.06;100.00;96090.59;5028051;28;20100;-52
2022/08/26 05:34:58;;;;;;;17.05;12.57;;;;;;;25.03;100.00;96090.28;5027907;28;20077;-47
2022/08/26 05:37:27;;;;;;;15.77;12.70;;;;;;;25.07;100.00;96091.41;5028506;28;20084;-49
2022/08/26 05:39:57;;;;;;;18.45;12.82;;;;;;;25.04;100.00;96095.41;5027755;28;20081;-48
2022/08/26 05:42:27;;;;;;;;;;;;;;;25.18;100.00;96087.84;5028909;28;20566;-49
2022/08/26 05:44:55;;;;;;;17.65;13.75;;;;;;;25.36;100.00;96088.66;5027942;28;20355;-51
2022/08/26 05:47:24;;;;;;;16.25;13.25;;;;;;;25.32;100.00;96089.13;5028591;28;20669;-50
2022/08/26 05:49:54;;;;;;;19.35;14.32;;;;;;;25.04;100.00;96095.41;5027684;28;20077;-50
2022/08/26 05:52:22;;;;;;;18.65;14.13;;;;;;;25.20;100.00;96088.41;5021177;28;20089;-52
2022/08/26 05:54:53;;;;;;;19.83;14.48;;;;;;;25.42;100.00;96093.88;5024956;28;20558;-48
2022/08/26 05:57:22;;;;;;;24.75;16.35;;;;;;;25.63;100.00;96096.88;5031324;28;20077;-48
2022/08/26 05:59:51;;;;;;;29.75;16.83;;;;;;;25.58;100.00;96089.53;5029304;28;20108;-49
2022/08/26 06:02:19;;;;;;;25.83;17.90;;;;;;;25.40;100.00;96096.03;5031341;28;20081;-51
2022/08/26 06:04:48;;;;;;;24.75;17.55;;;;;;;25.15;100.00;96103.72;5031853;28;20085;-50
2022/08/26 06:07:16;;;;;;;30.70;20.63;;;;;;;25.69;100.00;96101.28;5031384;28;20081;-52
2022/08/26 06:09:45;;;;;;;28.80;20.90;;;;;;;25.88;100.00;96101.81;5031729;28;20081;-48
2022/08/26 06:12:14;;;;;;;34.20;22.38;;;;;;;26.02;100.00;96100.41;5031092;28;20077;-49
2022/08/26 06:14:46;;;;;;;29.52;21.73;;;;;;;25.45;100.00;96101.47;5030041;28;20073;-49
2022/08/26 06:17:16;;;;;;;30.45;22.60;;;;;;;25.58;100.00;96105.72;5031877;28;20089;-50
2022/08/26 06:19:45;;;;;;;30.63;21.70;;;;;;;26.00;100.00;96108.75;5031015;28;20536;-54
2022/08/26 06:27:41;;;;;;;31.92;21.75;;;;;;;26.25;100.00;96105.53;5029190;28;20065;-49
2022/08/26 06:30:12;;;;;;;29.05;21.70;;;;;;;26.36;100.00;96114.59;5030181;28;20081;-52
2022/08/26 06:32:40;;;;;;;35.25;24.30;;;;;;;26.27;100.00;96108.81;5030991;28;20077;-50
2022/08/26 06:35:09;;;;;;;34.72;26.45;;;;;;;26.20;100.00;96107.38;5031661;28;20092;-49
2022/08/26 06:37:39;;;;;;;35.33;25.75;;;;;;;25.90;100.00;96107.81;5030909;28;20084;-47
2022/08/26 06:40:09;;;;;;;27.90;24.42;;;;;;;26.21;100.00;96104.41;5030334;28;20081;-50
2022/08/26 06:42:39;;;;;;;31.27;24.45;;;;;;;26.63;100.00;96106.50;5030570;28;20103;-52
2022/08/26 06:45:08;;;;;;;30.17;23.55;;;;;;;26.04;100.00;96104.47;5031269;28;20442;-47
2022/08/26 06:47:39;;;;;;;29.75;23.08;;;;;;;26.93;100.00;96110.59;5025904;28;20096;-51
2022/08/26 06:50:08;;;;;;;32.10;24.20;;;;;;;26.84;100.00;96112.13;5020110;28;20084;-49
2022/08/26 06:52:37;;;;;;;27.87;22.07;;;;;;;26.85;100.00;96114.59;5030719;28;20045;-51
2022/08/26 06:55:06;;;;;;;26.88;21.42;;;;;;;27.23;100.00;96110.09;5029123;28;20552;-52
2022/08/26 06:57:35;;;;;;;31.23;21.75;;;;;;;26.37;100.00;96115.41;5030897;28;20104;-49
2022/08/26 07:00:09;;;;;;;26.98;21.67;;;;;;;26.55;100.00;96115.09;5029950;28;20088;-53
2022/08/26 07:02:39;;;;;;;30.48;21.80;;;;;;;27.11;100.00;96122.94;5030547;28;20481;-53
2022/08/26 07:05:13;;;;;;;27.95;20.27;;;;;;;27.33;100.00;96114.75;5030401;28;20080;-49
2022/08/26 07:07:42;;;;;;;29.25;20.23;;;;;;;27.37;100.00;96113.97;5029823;28;20096;-51
2022/08/26 07:10:10;;;;;;;26.83;19.73;;;;;;;26.97;100.00;96115.22;5025466;28;20085;-51
2022/08/26 07:12:39;;;;;;;24.85;19.10;;;;;;;27.76;100.00;96119.13;5030456;28;20524;-50
2022/08/26 07:15:09;;;;;;;22.75;19.55;;;;;;;27.35;100.00;96126.94;5030436;28;20092;-53
2022/08/26 07:17:39;;;;;;;25.60;17.38;;;;;;;28.37;100.00;96114.00;5030713;28;20115;-52
2022/08/26 07:20:10;;;;;;;21.25;16.83;;;;;;;28.30;100.00;96118.03;5028246;28;20053;-50
2022/08/26 07:22:39;;;;;;;28.63;19.88;;;;;;;28.15;100.00;96118.81;5028772;28;20892;-50
2022/08/26 07:25:10;;;;;;;21.33;18.23;;;;;;;28.62;100.00;96116.00;5023418;28;20088;-54
2022/08/26 07:27:39;;;;;;;22.75;16.98;;;;;;;27.80;100.00;96122.94;5030433;28;20103;-49
2022/08/26 07:30:08;;;;;;;26.20;18.85;;;;;;;27.55;100.00;96120.06;5030045;28;20099;-52
2022/08/26 07:32:43;;;;;;;24.77;17.85;;;;;;;27.74;100.00;96115.84;5025013;28;20089;-53
2022/08/26 07:35:11;;;;;;;26.33;18.30;;;;;;;27.44;100.00;96124.59;5030188;28;20463;-50
2022/08/26 07:37:40;;;;;;;21.38;17.55;;;;;;;27.93;100.00;96108.94;5021601;28;20174;-51
2022/08/26 07:40:09;;;;;;;22.02;16.85;;;;;;;27.84;100.00;96115.09;5029630;28;20465;-49
2022/08/26 07:42:39;;;;;;;;;;;;;;;27.97;100.00;96121.97;5029668;28;20498;-50
2022/08/26 07:45:07;;;;;;;22.25;16.58;;;;;;;27.66;100.00;96119.03;5018773;28;20168;-53
2022/08/26 07:47:36;;;;;;;19.90;17.00;;;;;;;28.40;100.00;96115.41;5026958;28;20077;-54
2022/08/26 07:50:06;;;;;;;23.40;17.15;;;;;;;27.97;100.00;96111.13;5029398;28;20080;-50
2022/08/26 07:52:36;;;;;;;23.42;15.77;;;;;;;28.16;100.00;96112.28;5025695;28;20088;-53
2022/08/26 07:55:05;;;;;;;;;;;;;;;28.45;100.00;96111.88;5029816;28;20088;-52
2022/08/26 07:57:34;;;;;;;20.08;15.68;;;;;;;29.00;100.00;96119.34;5029917;28;19964;-50
2022/08/26 08:00:09;;;;;;;20.30;15.50;;;;;;;28.46;100.00;96116.22;5029243;28;20088;-55
2022/08/26 08:02:38;;;;;;;22.17;16.20;;;;;;;28.17;100.00;96122.06;5029276;28;20088;-50
2022/08/26 08:05:08;;;;;;;20.58;15.85;;;;;;;28.46;100.00;96122.47;5029393;28;20085;-49
2022/08/26 08:07:37;;;;;;;18.92;15.77;;;;;;;28.99;100.00;96122.31;5027979;28;20149;-54
2022/08/26 08:10:14;;;;;;;20.52;15.75;;;;;;;29.75;100.00;96118.81;5028535;28;20108;-50
2022/08/26 08:12:42;;;;;;;;;;;;;;;29.25;100.00;96120.44;5029490;28;20092;-52
2022/08/26 08:15:12;;;;;;;22.73;16.05;;;;;;;29.03;100.00;96107.13;5029352;28;19956;-50
2022/08/26 08:17:41;;;;;;;21.10;15.90;;;;;;;28.57;100.00;96113.28;5027189;28;20554;-52
2022/08/26 08:20:13;;;;;;;19.60;15.30;;;;;;;29.33;100.00;96109.84;5025919;28;20619;-52
2022/08/26 08:22:42;;;;;;;20.00;15.43;;;;;;;30.64;100.00;96110.88;5026588;28;20504;-52
2022/08/26 08:25:10;;;;;;;19.90;15.93;;;;;;;30.10;100.00;96107.00;5029462;28;20099;-51
2022/08/26 08:27:39;;;;;;;19.13;15.02;;;;;;;30.12;100.00;96109.47;5029074;28;20088;-54
2022/08/26 08:30:09;;;;;;;21.50;15.47;;;;;;;30.32;100.00;96112.13;5029048;28;20080;-50
2022/08/26 08:32:42;;;;;;;20.13;14.70;;;;;;;30.28;100.00;96111.03;5028658;28;20511;-52
2022/08/26 08:35:14;;;;;;;19.27;14.38;;;;;;;31.01;100.00;96109.59;5027392;28;20587;-54
2022/08/26 08:37:43;;;;;;;18.88;14.73;;;;;;;31.07;100.00;96101.06;5028841;28;20088;-47
2022/08/26 08:40:16;;;;;;;19.60;14.15;;;;;;;29.79;100.00;96107.09;5027289;28;20073;-51
2022/08/26 08:42:49;;;;;;;21.35;14.68;;;;;;;30.63;100.00;96101.91;5024831;28;20085;-52
2022/08/26 08:45:21;;;;;;;18.15;13.18;;;;;;;31.10;100.00;96103.22;5029079;28;20077;-48
2022/08/26 08:47:52;;;;;;;21.05;13.00;;;;;;;31.89;100.00;96098.47;5028140;28;20104;-52
2022/08/26 08:50:26;;;;;;;17.73;13.50;;;;;;;30.69;100.00;96106.19;5029000;28;20081;-52
2022/08/26 08:53:04;;;;;;;18.98;13.82;;;;;;;30.81;100.00;96105.09;5028091;28;20092;-53
2022/08/26 08:55:48;;;;;;;17.35;13.50;;;;;;;30.81;100.00;96102.38;5022586;28;20073;-55
2022/08/26 08:58:20;;;;;;;18.40;13.75;;;;;;;30.94;100.00;96102.53;5028780;28;20099;-48
2022/08/26 09:00:53;;;;;;;18.50;13.85;;;;;;;29.43;100.00;96108.22;5028519;28;20089;-50
2022/08/26 09:03:33;;;;;;;17.98;13.85;;;;;;;30.36;100.00;96098.78;5028192;28;20092;-47
2022/08/26 09:06:03;;;;;;;18.80;13.27;;;;;;;31.49;100.00;96104.28;5028963;28;20515;-51
2022/08/26 09:08:34;;;;;;;19.15;12.23;;;;;;;31.88;100.00;96102.28;5028543;28;20084;-50
2022/08/26 09:11:03;;;;;;;19.35;13.32;;;;;;;31.80;100.00;96105.63;5023686;28;20085;-52
2022/08/26 09:13:34;;;;;;;17.20;12.63;;;;;;;31.90;100.00;96100.09;5025180;28;20085;-50
2022/08/26 09:16:07;;;;;;;21.38;13.52;;;;;;;31.77;100.00;96094.50;5028653;28;20080;-49
2022/08/26 09:19:06;;;;;;;17.08;12.77;;;;;;;30.53;100.00;96103.88;5026887;28;20080;-56
2022/08/26 09:21:37;;;;;;;15.82;12.88;;;;;;;31.77;100.00;96108.13;5026141;28;20073;-53
2022/08/26 09:24:07;;;;;;;17.17;12.40;;;;;;;31.16;100.00;96107.53;5028789;28;20088;-52
2022/08/26 09:26:44;;;;;;;18.85;12.90;;;;;;;30.91;100.00;96105.03;5028573;28;20110;-51
2022/08/26 09:29:20;;;;;;;15.90;12.75;;;;;;;31.44;100.00;96107.88;5028502;28;20133;-50
2022/08/26 09:32:14;;;;;;;19.40;13.23;;;;;;;32.32;100.00;96094.97;5026843;28;20081;-54
2022/08/26 09:34:54;;;;;;;18.63;12.88;;;;;;;30.98;100.00;96108.25;5032522;28;20089;-50
2022/08/26 09:37:35;;;;;;;17.80;12.80;;;;;;;32.07;100.00;96096.06;5026994;28;20469;-54
2022/08/26 09:40:26;;;;;;;17.30;11.80;;;;;;;31.78;100.00;96102.38;5021332;28;20519;-53
2022/08/26 09:43:15;;;;;;;14.95;11.02;;;;;;;31.73;100.00;96093.41;5020604;28;20074;-50
2022/08/26 09:45:53;;;;;;;17.40;11.68;;;;;;;32.14;100.00;96091.06;5024476;28;20092;-54
2022/08/26 09:48:29;;;;;;;14.02;11.98;;;;;;;30.59;100.00;96100.00;5029741;28;20700;-51
2022/08/26 09:50:59;;;;;;;15.80;12.52;;;;;;;31.44;100.00;96091.53;5028415;28;20081;-49
2022/08/26 09:53:31;;;;;;;17.38;11.20;;;;;;;32.06;100.00;96078.91;5019664;28;20084;-52
2022/08/26 09:56:16;;;;;;;16.40;9.90;;;;;;;31.73;100.00;96072.44;5029230;28;20073;-50
2022/08/26 09:58:47;;;;;;;20.35;11.27;;;;;;;31.94;100.00;96069.53;5017738;28;20084;-50
2022/08/26 10:01:19;;;;;;;17.55;11.43;;;;;;;32.43;100.00;96066.47;5015621;28;20084;-56
2022/08/26 10:03:47;;;;;;;15.60;10.95;;;;;;;31.95;100.00;96062.97;5026788;28;20069;-55
2022/08/26 10:06:25;;;;;;;14.90;11.05;;;;;;;31.86;100.00;96063.53;5027128;28;20081;-52
2022/08/26 10:08:57;;;;;;;15.00;12.02;;;;;;;31.02;100.00;96068.44;5021675;28;20087;-54
2022/08/26 10:11:32;;;;;;;15.98;11.65;;;;;;;31.32;100.00;96061.13;5022537;28;20086;-50
2022/08/26 10:14:04;;;;;;;15.85;10.90;;;;;;;29.86;100.00;96057.88;5022817;28;20088;-49
2022/08/26 10:16:37;;;;;;;17.08;10.82;;;;;;;31.12;100.00;96056.66;5025730;28;20111;-48
2022/08/26 10:19:09;;;;;;;18.83;11.07;;;;;;;29.87;100.00;96055.97;5026328;28;20085;-48
2022/08/26 10:21:49;;;;;;;20.27;12.65;;;;;;;30.35;100.00;96046.28;5025174;28;20137;-53
2022/08/26 10:24:26;;;;;;;16.35;11.57;;;;;;;29.39;100.00;96047.34;5017707;28;20092;-53
2022/08/26 10:27:00;;;;;;;20.90;12.10;;;;;;;29.86;100.00;96046.19;5022469;28;20085;-56
2022/08/26 10:29:33;;;;;;;18.42;12.25;;;;;;;28.83;100.00;96045.47;5023935;28;20088;-52
2022/08/26 10:32:06;;;;;;;20.35;12.00;;;;;;;29.65;100.00;96046.25;5023730;28;20088;-49
2022/08/26 10:34:34;;;;;;;15.57;12.82;;;;;;;29.03;100.00;96047.41;5019518;28;20452;-49
2022/08/26 10:37:08;;;;;;;15.80;12.23;;;;;;;29.11;100.00;96041.41;5028796;28;20084;-51
2022/08/26 10:39:50;;;;;;;18.30;11.65;;;;;;;29.74;100.00;96036.44;5023740;28;20453;-52
2022/08/26 10:42:27;;;;;;;18.45;12.05;;;;;;;29.99;100.00;96029.28;5022090;28;20513;-49
2022/08/26 10:44:59;;;;;;;18.73;11.95;;;;;;;29.47;100.00;96025.88;5021994;28;20095;-51
2022/08/26 10:47:33;;;;;;;17.67;11.00;;;;;;;30.04;100.00;96031.97;5027436;28;20082;-54
2022/08/26 10:50:03;;;;;;;15.50;11.25;;;;;;;30.36;100.00;96028.84;5022871;28;20103;-51
2022/08/26 10:52:39;;;;;;;16.35;11.23;;;;;;;30.55;100.00;96029.00;5023947;28;20734;-53
2022/08/26 10:55:18;;;;;;;16.95;9.32;;;;;;;29.96;100.00;96018.97;5024079;28;21050;-54
2022/08/26 10:57:51;;;;;;;17.63;9.70;;;;;;;30.05;100.00;96022.72;5020565;28;20087;-49
2022/08/26 11:03:12;;;;;;;;;;;;;;;30.25;100.00;96019.13;5019150;28;20099;-51
2022/08/26 11:06:21;;;;;;;15.95;9.88;;;;;;;30.80;100.00;96024.47;5027767;28;19974;-51
2022/08/26 11:08:51;;;;;;;22.50;11.93;;;;;;;30.54;100.00;96021.94;5026742;28;20096;-52
2022/08/26 11:11:48;;;;;;;15.90;10.40;;;;;;;30.45;100.00;96020.88;5023192;28;20076;-53
2022/08/26 11:14:34;;;;;;;14.75;10.35;;;;;;;30.02;100.00;96020.56;5024360;28;20077;-47
2022/08/26 11:17:54;;;;;;;14.55;10.68;;;;;;;30.44;100.00;96011.09;5022509;28;20081;-50
2022/08/26 11:20:33;;;;;;;15.63;10.13;;;;;;;30.79;100.00;96012.78;5020421;28;20046;-50
2022/08/26 11:23:39;;;;;;;20.38;11.50;;;;;;;31.26;100.00;96007.75;5020507;28;20481;-52
2022/08/26 11:26:17;;;;;;;13.30;9.70;;;;;;;30.66;100.00;96002.50;4980009;28;20189;-48
2022/08/26 11:29:10;;;;;;;14.10;9.18;;;;;;;30.98;100.00;95993.84;4980818;28;20089;-54
2022/08/26 11:31:54;;;;;;;19.73;9.02;;;;;;;31.04;100.00;95998.16;5014518;28;20793;-52
2022/08/26 11:34:50;;;;;;;16.17;9.30;;;;;;;31.36;100.00;95986.69;5022456;28;20096;-49
2022/08/26 11:37:19;;;;;;;16.20;9.20;;;;;;;31.26;100.00;95989.50;5022255;28;20089;-54
2022/08/26 11:39:54;;;;;;;13.98;8.65;;;;;;;31.56;100.00;95982.13;5024836;28;20093;-52
2022/08/26 11:42:33;;;;;;;11.05;7.90;;;;;;;31.20;100.00;95977.81;5026300;28;20077;-50
2022/08/26 11:45:03;;;;;;;12.27;8.15;;;;;;;31.56;100.00;95980.22;5012658;28;20089;-49